Ely, Nevada
Current Conditions -  °F | °C
As of 2:53 AM on Friday 24 Oct 2014 (Local Time) from KELY Reporting Station
Clear Clear  
Wind Chill: 51°   Ceiling: Unl
Heat Index: 51°   Visibility: 10mi
Dew Point: 26°   Wind: 14mph
Humidity: 38%   Direction: 210°SSW
Pressure: 30.22"   Gusts: NA
Location:  39.25°N, 114.87°W
Report Text: KELY 240953Z AUTO 21012KT 10SM CLR 11/M03 A3022 RMK AO2 SLP152 T01061033
Loading
Personal Weather Stations






























Interactive Weather Map New forecast layout! Learn more

10-Day Weather Forecast

Advertisements
Track Severe Weather on mobile